createdAt,value
2019-04-25T00:02:38.180Z,17.00
2019-04-25T00:05:43.587Z,17.90
2019-04-25T00:08:48.692Z,19.50
2019-04-25T00:11:53.838Z,27.10
2019-04-25T00:14:58.789Z,23.37
2019-04-25T00:18:03.986Z,21.70
2019-04-25T00:21:18.507Z,19.70
2019-04-25T00:24:37.177Z,29.73
2019-04-25T00:27:43.583Z,21.93
2019-04-25T00:30:48.598Z,18.67
2019-04-25T00:33:53.566Z,22.40
2019-04-25T00:36:58.726Z,18.60
2019-04-25T00:40:03.683Z,22.10
2019-04-25T00:43:08.808Z,22.73
2019-04-25T00:46:13.733Z,25.57
2019-04-25T00:49:18.896Z,23.07
2019-04-25T00:52:23.830Z,17.73
2019-04-25T00:55:29.084Z,16.20
2019-04-25T00:59:02.228Z,18.93
2019-04-25T01:02:25.051Z,14.80
2019-04-25T01:05:31.628Z,21.53
2019-04-25T01:08:36.542Z,19.60
2019-04-25T01:11:42.440Z,17.23
2019-04-25T01:14:48.357Z,21.43
2019-04-25T01:17:53.460Z,22.00
2019-04-25T01:20:58.535Z,15.17
2019-04-25T01:24:04.294Z,27.13
2019-04-25T01:27:09.851Z,14.90
2019-04-25T01:30:18.697Z,20.90
2019-04-25T01:33:24.067Z,17.10
2019-04-25T01:36:50.942Z,16.00
2019-04-25T01:40:13.986Z,22.57
2019-04-25T01:43:31.075Z,18.17
2019-04-25T01:46:37.911Z,16.13
2019-04-25T01:49:43.902Z,12.20
2019-04-25T01:52:48.993Z,17.40
2019-04-25T01:56:01.609Z,21.03
2019-04-25T01:59:00.448Z,15.93
2019-04-25T02:02:07.224Z,16.83
2019-04-25T02:05:13.917Z,21.43
2019-04-25T02:08:19.236Z,13.70
2019-04-25T02:11:45.716Z,16.60
2019-04-25T02:14:54.641Z,16.13
2019-04-25T02:17:59.401Z,17.77
2019-04-25T02:21:05.820Z,15.37
2019-04-25T02:24:10.787Z,13.80
2019-04-25T02:27:15.678Z,17.13
2019-04-25T02:30:21.842Z,22.57
2019-04-25T02:33:26.973Z,11.20
2019-04-25T02:36:34.440Z,18.70
2019-04-25T02:39:44.865Z,18.27
2019-04-25T02:42:50.015Z,13.40
2019-04-25T02:46:26.150Z,19.63
2019-04-25T02:49:58.402Z,9.00
2019-04-25T02:53:23.886Z,15.63
2019-04-25T02:56:34.411Z,14.50
2019-04-25T02:59:37.073Z,13.73
2019-04-25T03:02:41.458Z,20.40
2019-04-25T03:05:47.775Z,16.87
2019-04-25T03:08:54.319Z,15.23
2019-04-25T03:11:59.919Z,12.90
2019-04-25T03:15:08.399Z,14.57
2019-04-25T03:18:15.182Z,21.47
2019-04-25T03:21:29.790Z,19.30
2019-04-25T03:24:35.136Z,11.40
2019-04-25T03:27:40.222Z,12.90
2019-04-25T03:30:45.185Z,18.37
2019-04-25T03:33:50.313Z,15.13
2019-04-25T03:36:55.186Z,21.20
2019-04-25T03:40:02.051Z,18.30
2019-04-25T03:43:07.077Z,20.77
2019-04-25T03:46:14.099Z,18.80
2019-04-25T03:49:18.938Z,18.90
2019-04-25T03:52:23.972Z,20.30
2019-04-25T03:55:28.935Z,20.93
2019-04-25T03:58:33.870Z,14.70
2019-04-25T04:01:38.912Z,23.77
2019-04-25T04:04:44.011Z,16.00
2019-04-25T04:07:48.983Z,18.90
2019-04-25T04:10:54.339Z,20.70
2019-04-25T04:13:59.261Z,15.30
2019-04-25T04:17:23.757Z,15.27
2019-04-25T04:20:53.514Z,12.80
2019-04-25T04:24:21.216Z,15.33
2019-04-25T04:27:26.197Z,18.93
2019-04-25T04:30:31.027Z,15.63
2019-04-25T04:33:35.993Z,20.43
2019-04-25T04:36:40.919Z,15.60
2019-04-25T04:39:45.944Z,15.80
2019-04-25T04:42:51.047Z,15.47
2019-04-25T04:45:56.034Z,22.10
2019-04-25T04:49:01.161Z,16.00
2019-04-25T04:52:06.557Z,13.30
2019-04-25T04:55:13.175Z,18.23
2019-04-25T04:58:19.228Z,15.43
2019-04-25T05:01:25.988Z,15.40
2019-04-25T05:04:39.380Z,17.63
2019-04-25T05:07:54.028Z,19.90
2019-04-25T05:10:59.044Z,18.30
2019-04-25T05:14:04.058Z,15.70
2019-04-25T05:17:09.027Z,21.03
2019-04-25T05:20:16.004Z,18.73
2019-04-25T05:23:21.019Z,13.60
2019-04-25T05:26:26.102Z,25.30
2019-04-25T05:29:31.328Z,17.80
2019-04-25T05:32:36.494Z,20.97
2019-04-25T05:35:41.329Z,20.43
2019-04-25T05:38:46.383Z,19.70
2019-04-25T05:42:07.655Z,22.93
2019-04-25T05:45:13.029Z,20.37
2019-04-25T05:48:19.931Z,20.17
2019-04-25T05:51:25.920Z,21.83
2019-04-25T05:54:31.200Z,16.10
2019-04-25T05:57:45.552Z,18.93
2019-04-25T06:00:44.025Z,13.70
2019-04-25T06:03:49.004Z,23.57
2019-04-25T06:06:55.234Z,23.80
2019-04-25T06:10:25.677Z,21.40
2019-04-25T06:14:00.340Z,19.77
2019-04-25T06:17:08.610Z,17.43
2019-04-25T06:20:14.978Z,13.27
2019-04-25T06:23:38.917Z,13.70
2019-04-25T06:27:03.886Z,11.93
2019-04-25T06:30:30.354Z,12.87
2019-04-25T06:33:35.576Z,17.20
2019-04-25T06:36:40.636Z,19.10
2019-04-25T06:39:45.794Z,14.90
2019-04-25T06:42:50.844Z,12.40
2019-04-25T06:46:24.490Z,11.20
2019-04-25T06:49:31.441Z,13.10
2019-04-25T06:52:36.569Z,13.40
2019-04-25T06:55:43.393Z,16.10
2019-04-25T06:58:48.588Z,10.97
2019-04-25T07:01:54.055Z,11.37
2019-04-25T07:05:00.253Z,8.93
2019-04-25T07:08:05.605Z,12.77
2019-04-25T07:11:10.601Z,14.03
2019-04-25T07:14:15.678Z,12.63
2019-04-25T07:17:20.666Z,12.37
2019-04-25T07:20:27.020Z,9.30
2019-04-25T07:23:33.410Z,15.77
2019-04-25T07:27:06.025Z,11.70
2019-04-25T07:30:52.685Z,12.00
2019-04-25T07:34:03.572Z,12.73
2019-04-25T07:37:08.659Z,9.03
2019-04-25T07:40:15.793Z,15.10
2019-04-25T07:43:20.742Z,10.75
2019-04-25T07:46:26.346Z,11.33
2019-04-25T07:49:31.483Z,11.53
2019-04-25T07:52:36.624Z,13.35
2019-04-25T07:55:43.253Z,11.53
2019-04-25T07:58:52.446Z,9.60
2019-04-25T08:01:55.198Z,10.37
2019-04-25T08:05:04.251Z,10.30
2019-04-25T08:08:09.228Z,14.23
2019-04-25T08:11:14.884Z,7.75
2019-04-25T08:14:38.043Z,11.35
2019-04-25T08:18:14.025Z,8.98
2019-04-25T08:21:19.332Z,13.10
2019-04-25T08:24:24.993Z,13.93
2019-04-25T08:27:30.398Z,14.33
2019-04-25T08:30:38.137Z,12.73
2019-04-25T08:33:46.358Z,8.53
2019-04-25T08:36:49.859Z,6.35
2019-04-25T08:39:54.845Z,11.10
2019-04-25T08:42:59.926Z,9.43
2019-04-25T08:46:05.347Z,8.03
2019-04-25T08:49:29.342Z,9.00
2019-04-25T08:52:35.485Z,8.85
2019-04-25T08:55:45.724Z,5.53
2019-04-25T08:59:14.180Z,9.50
2019-04-25T09:02:50.322Z,10.08
2019-04-25T09:05:55.434Z,9.75
2019-04-25T09:09:00.294Z,7.00
2019-04-25T09:12:05.471Z,8.83
2019-04-25T09:15:10.641Z,6.72
2019-04-25T09:18:15.754Z,9.08
2019-04-25T09:21:20.668Z,9.80
2019-04-25T09:24:25.735Z,11.30
2019-04-25T09:27:30.936Z,5.47
2019-04-25T09:30:37.021Z,11.27
2019-04-25T09:33:42.151Z,5.20
2019-04-25T09:36:47.313Z,7.27
2019-04-25T09:40:24.006Z,5.27
2019-04-25T09:43:29.209Z,9.00
2019-04-25T09:46:36.330Z,5.10
2019-04-25T09:49:44.840Z,8.50
2019-04-25T09:52:50.014Z,7.37
2019-04-25T09:56:00.456Z,5.63
2019-04-25T09:59:27.147Z,6.80
2019-04-25T10:02:27.655Z,7.33
2019-04-25T10:05:33.936Z,8.20
2019-04-25T10:08:39.015Z,10.27
2019-04-25T10:11:45.406Z,8.50
2019-04-25T10:15:11.347Z,5.97
2019-04-25T10:18:16.628Z,9.73
2019-04-25T10:21:21.741Z,4.70
2019-04-25T10:24:26.685Z,10.80
2019-04-25T10:27:32.252Z,5.63
2019-04-25T10:30:37.431Z,5.73
2019-04-25T10:33:46.668Z,5.30
2019-04-25T10:36:50.556Z,10.03
2019-04-25T10:39:55.744Z,4.67
2019-04-25T10:43:00.625Z,7.10
2019-04-25T10:46:05.994Z,3.60
2019-04-25T10:49:11.016Z,9.20
2019-04-25T10:52:16.188Z,4.40
2019-04-25T10:55:21.069Z,5.60
2019-04-25T10:58:26.254Z,4.80
2019-04-25T11:01:31.239Z,5.30
2019-04-25T11:05:00.041Z,8.50
2019-04-25T11:08:05.278Z,7.83
2019-04-25T11:11:11.682Z,4.87
2019-04-25T11:14:17.121Z,7.50
2019-04-25T11:17:24.111Z,5.83
2019-04-25T11:20:29.744Z,6.23
2019-04-25T11:23:34.778Z,5.67
2019-04-25T11:26:40.544Z,3.50
2019-04-25T11:29:47.176Z,6.47
2019-04-25T11:32:53.490Z,6.27
2019-04-25T11:35:59.106Z,3.73
2019-04-25T11:39:26.824Z,8.53
2019-04-25T11:42:33.673Z,6.73
2019-04-25T11:45:39.649Z,3.73
2019-04-25T11:48:45.489Z,4.43
2019-04-25T11:51:52.360Z,4.80
2019-04-25T11:54:57.379Z,4.80
2019-04-25T11:58:03.661Z,6.70
2019-04-25T12:01:09.431Z,3.40
2019-04-25T12:04:14.875Z,7.90
2019-04-25T12:07:20.376Z,7.70
2019-04-25T12:10:25.660Z,4.83
2019-04-25T12:13:30.818Z,5.43
2019-04-25T12:16:35.912Z,3.53
2019-04-25T12:19:41.038Z,7.50
2019-04-25T12:22:46.615Z,3.90
2019-04-25T12:25:52.508Z,3.80
2019-04-25T12:28:58.519Z,7.17
2019-04-25T12:32:04.142Z,7.03
2019-04-25T12:35:09.602Z,5.70
2019-04-25T12:38:14.706Z,6.60
2019-04-25T12:41:20.442Z,4.20
2019-04-25T12:44:50.886Z,3.83
2019-04-25T12:47:58.850Z,5.00
2019-04-25T12:51:03.284Z,4.57
2019-04-25T12:54:08.224Z,3.87
2019-04-25T12:57:15.257Z,6.07
2019-04-25T13:00:24.406Z,6.33
2019-04-25T13:03:29.389Z,6.87
2019-04-25T13:06:34.440Z,4.50
2019-04-25T13:09:39.645Z,3.37
2019-04-25T13:12:44.595Z,4.30
2019-04-25T13:15:49.759Z,3.23
2019-04-25T13:19:21.090Z,4.80
2019-04-25T13:22:38.910Z,8.77
2019-04-25T13:25:44.233Z,6.90
2019-04-25T13:29:08.046Z,5.43
2019-04-25T13:32:31.884Z,8.77
2019-04-25T13:35:43.417Z,3.20
2019-04-25T13:38:48.639Z,4.53
2019-04-25T13:41:54.422Z,4.97
2019-04-25T13:45:00.215Z,3.83
2019-04-25T13:48:05.301Z,7.93
2019-04-25T13:51:10.394Z,6.40
2019-04-25T13:54:15.682Z,7.67
2019-04-25T13:57:20.899Z,6.50
2019-04-25T14:00:27.739Z,3.10
2019-04-25T14:03:35.488Z,3.20
2019-04-25T14:06:40.023Z,4.40
2019-04-25T14:09:45.219Z,9.83
2019-04-25T14:12:50.152Z,5.80
2019-04-25T14:16:17.110Z,2.73
2019-04-25T14:19:39.465Z,6.90
2019-04-25T14:22:45.394Z,6.10
2019-04-25T14:25:50.571Z,9.57
2019-04-25T14:28:55.621Z,6.50
2019-04-25T14:32:03.204Z,4.97
2019-04-25T14:35:08.448Z,6.90
2019-04-25T14:38:13.894Z,8.00
2019-04-25T14:41:18.953Z,4.40
2019-04-25T14:44:23.872Z,6.40
2019-04-25T14:47:29.587Z,7.00
2019-04-25T14:50:34.852Z,8.73
2019-04-25T14:53:39.917Z,7.23
2019-04-25T14:56:51.304Z,7.57
2019-04-25T14:59:56.460Z,5.97
2019-04-25T15:03:01.705Z,9.70
2019-04-25T15:06:06.947Z,6.43
2019-04-25T15:09:11.773Z,5.53
2019-04-25T15:12:16.821Z,8.97
2019-04-25T15:15:22.344Z,8.83
2019-04-25T15:18:28.785Z,11.10
2019-04-25T15:21:34.016Z,9.67
2019-04-25T15:24:39.002Z,7.97
2019-04-25T15:27:45.552Z,6.03
2019-04-25T15:30:51.176Z,7.83
2019-04-25T15:33:56.045Z,7.33
2019-04-25T15:37:09.855Z,8.93
2019-04-25T15:40:41.060Z,6.30
2019-04-25T15:43:56.512Z,8.53
2019-04-25T15:47:02.288Z,5.77
2019-04-25T15:50:08.852Z,9.63
2019-04-25T15:53:13.931Z,5.80
2019-04-25T15:56:19.176Z,6.93
2019-04-25T15:59:24.277Z,6.90
2019-04-25T16:02:30.192Z,9.50
2019-04-25T16:05:35.939Z,7.00
2019-04-25T16:08:41.200Z,7.63
2019-04-25T16:11:46.197Z,6.33
2019-04-25T16:14:51.192Z,10.30
2019-04-25T16:17:56.359Z,11.97
2019-04-25T16:21:01.885Z,6.30
2019-04-25T16:24:06.816Z,7.90
2019-04-25T16:27:13.210Z,7.33
2019-04-25T16:30:20.574Z,7.30
2019-04-25T16:33:25.561Z,8.40
2019-04-25T16:36:30.792Z,7.17
2019-04-25T16:39:36.196Z,7.17
2019-04-25T16:42:41.768Z,10.70
2019-04-25T16:45:47.089Z,6.70
2019-04-25T16:48:52.110Z,10.80
2019-04-25T16:51:58.926Z,6.53
2019-04-25T16:55:04.231Z,6.67
2019-04-25T16:58:09.689Z,10.53
2019-04-25T17:01:15.626Z,11.10
2019-04-25T17:04:20.800Z,10.10
2019-04-25T17:07:25.860Z,7.90
2019-04-25T17:10:31.476Z,6.03
2019-04-25T17:13:40.467Z,7.63
2019-04-25T17:17:10.426Z,7.17
2019-04-25T17:20:27.518Z,6.13
2019-04-25T17:23:32.458Z,6.57
2019-04-25T17:26:37.468Z,8.50
2019-04-25T17:29:43.045Z,6.77
2019-04-25T17:33:07.149Z,5.63
2019-04-25T17:36:19.889Z,8.33
2019-04-25T17:39:35.446Z,8.77
2019-04-25T17:42:40.974Z,8.17
2019-04-25T17:45:46.108Z,8.33
2019-04-25T17:48:51.117Z,8.73
2019-04-25T17:51:56.078Z,10.00
2019-04-25T17:55:01.189Z,7.67
2019-04-25T17:58:06.320Z,6.37
2019-04-25T18:01:14.092Z,7.40
2019-04-25T18:04:19.363Z,6.87
2019-04-25T18:07:24.260Z,6.87
2019-04-25T18:10:29.781Z,8.90
2019-04-25T18:13:37.620Z,5.77
2019-04-25T18:16:44.937Z,11.03
2019-04-25T18:20:01.108Z,5.67
2019-04-25T18:23:20.394Z,8.43
2019-04-25T18:26:35.239Z,8.93
2019-04-25T18:29:41.550Z,7.50
2019-04-25T18:32:54.412Z,6.00
2019-04-25T18:36:20.195Z,7.83
2019-04-25T18:39:30.242Z,8.73
2019-04-25T18:42:52.809Z,10.80
2019-04-25T18:46:05.113Z,8.20
2019-04-25T18:49:10.055Z,8.40
2019-04-25T18:52:42.856Z,11.77
2019-04-25T18:55:57.410Z,9.77
2019-04-25T18:59:38.689Z,9.53
2019-04-25T19:02:57.831Z,7.50
2019-04-25T19:06:09.213Z,10.30
2019-04-25T19:09:14.572Z,10.03
2019-04-25T19:12:19.714Z,7.00
2019-04-25T19:15:24.738Z,7.87
2019-04-25T19:18:29.795Z,3.60
2019-04-25T19:21:34.931Z,7.97
2019-04-25T19:24:42.164Z,8.00
2019-04-25T19:27:47.336Z,8.43
2019-04-25T19:30:52.633Z,7.80
2019-04-25T19:33:57.665Z,6.07
2019-04-25T19:37:02.715Z,9.27
2019-04-25T19:40:26.893Z,4.20
2019-04-25T19:43:51.029Z,7.73
2019-04-25T19:46:57.714Z,9.20
2019-04-25T19:50:02.919Z,11.30
2019-04-25T19:53:07.920Z,9.30
2019-04-25T19:56:13.047Z,8.90
2019-04-25T19:59:18.161Z,7.60
2019-04-25T20:02:51.260Z,8.30
2019-04-25T20:06:14.493Z,6.43
2019-04-25T20:09:38.423Z,7.87
2019-04-25T20:12:46.289Z,7.17
2019-04-25T20:15:51.976Z,9.80
2019-04-25T20:18:57.192Z,5.40
2019-04-25T20:22:02.403Z,10.73
2019-04-25T20:25:07.943Z,8.03
2019-04-25T20:28:12.977Z,10.27
2019-04-25T20:31:18.039Z,7.80
2019-04-25T20:34:23.658Z,5.63
2019-04-25T20:37:28.876Z,7.03
2019-04-25T20:40:33.838Z,7.00
2019-04-25T20:43:39.141Z,5.50
2019-04-25T20:46:44.477Z,8.13
2019-04-25T20:49:49.631Z,5.50
2019-04-25T20:52:55.080Z,7.13
2019-04-25T20:56:00.164Z,6.30
2019-04-25T20:59:05.556Z,11.80
2019-04-25T21:02:10.801Z,10.77
2019-04-25T21:05:15.922Z,8.00
2019-04-25T21:08:21.097Z,5.67
2019-04-25T21:11:25.970Z,6.70
2019-04-25T21:14:47.304Z,4.47
2019-04-25T21:18:09.338Z,9.57
2019-04-25T21:21:14.304Z,10.17
2019-04-25T21:24:19.409Z,8.20
2019-04-25T21:27:24.407Z,8.27
2019-04-25T21:30:29.435Z,11.70
2019-04-25T21:33:34.714Z,7.40
2019-04-25T21:36:40.044Z,7.50
2019-04-25T21:39:55.086Z,8.57
2019-04-25T21:43:15.645Z,10.00
2019-04-25T21:46:21.082Z,10.03
2019-04-25T21:49:26.394Z,6.23
2019-04-25T21:52:31.596Z,8.17
2019-04-25T21:55:36.905Z,6.40
2019-04-25T21:58:42.040Z,10.20
2019-04-25T22:01:48.090Z,7.50
2019-04-25T22:04:54.128Z,10.40
2019-04-25T22:08:00.507Z,18.30
2019-04-25T22:11:05.893Z,10.90
2019-04-25T22:14:12.204Z,9.83
2019-04-25T22:17:17.698Z,7.23
2019-04-25T22:20:23.214Z,8.40
2019-04-25T22:23:28.408Z,6.03
2019-04-25T22:26:33.865Z,10.90
2019-04-25T22:29:42.204Z,8.87
2019-04-25T22:33:06.103Z,8.77
2019-04-25T22:36:19.605Z,6.53
2019-04-25T22:39:24.480Z,7.23
2019-04-25T22:42:29.857Z,8.67
2019-04-25T22:45:34.909Z,7.97
2019-04-25T22:48:49.269Z,5.87
2019-04-25T22:51:54.411Z,6.80
2019-04-25T22:54:59.858Z,9.80
2019-04-25T22:58:05.999Z,5.40
2019-04-25T23:01:23.101Z,6.07
2019-04-25T23:04:48.689Z,7.80
2019-04-25T23:07:53.614Z,8.30
2019-04-25T23:10:59.007Z,8.50
2019-04-25T23:14:04.846Z,5.83
2019-04-25T23:17:11.504Z,9.50
2019-04-25T23:20:16.601Z,9.80
2019-04-25T23:23:21.630Z,9.50
2019-04-25T23:26:46.275Z,9.18
2019-04-25T23:29:51.640Z,6.53
2019-04-25T23:32:57.030Z,11.63
2019-04-25T23:36:02.015Z,9.83
2019-04-25T23:39:09.375Z,8.60
2019-04-25T23:42:15.561Z,9.77
2019-04-25T23:45:21.304Z,7.63
2019-04-25T23:48:26.281Z,9.23
2019-04-25T23:51:31.375Z,5.40
2019-04-25T23:54:36.736Z,8.07
2019-04-25T23:57:41.617Z,7.67
